Time;durP1;ratioP1;P1;durP2;ratioP2;P2;SDS_P1;SDS_P2;PMS_P1;PMS_P2;Temp;Humidity;BMP_temperature;BMP_pressure;BME280_temperature;BME280_humidity;BME280_pressure;Samples;Min_cycle;Max_cycle;Signal;HPM_P1;HPM_P2
2021/12/31 00:00:36;;;;;;;3.22;1.58;;;;;;;26.50;37.31;97264.59;4998553;28;20029;-59
2021/12/31 00:03:01;;;;;;;3.42;1.20;;;;;;;26.51;37.47;97270.72;5000732;28;20029;-60
2021/12/31 00:05:27;;;;;;;3.55;1.25;;;;;;;26.51;37.48;97271.56;5007008;28;20683;-60
2021/12/31 00:07:52;;;;;;;4.57;1.67;;;;;;;26.51;37.58;97270.72;5003212;28;20096;-59
2021/12/31 00:10:18;;;;;;;3.60;1.58;;;;;;;26.50;37.53;97269.84;4999543;28;20032;-60
2021/12/31 00:12:44;;;;;;;3.47;1.40;;;;;;;26.50;37.49;97264.59;5001243;28;20029;-59
2021/12/31 00:15:10;;;;;;;6.13;1.60;;;;;;;26.50;37.53;97269.84;4997355;28;20092;-59
2021/12/31 00:17:36;;;;;;;2.75;1.10;;;;;;;26.50;37.53;97275.09;5001348;28;20036;-60
2021/12/31 00:20:09;;;;;;;10.57;1.65;;;;;;;26.49;37.47;97268.16;4995696;28;20049;-60
2021/12/31 00:22:56;;;;;;;3.33;1.33;;;;;;;26.42;37.55;97258.84;4999126;28;20025;-59
2021/12/31 00:25:20;;;;;;;4.07;1.27;;;;;;;26.50;37.50;97269.84;5007025;28;20030;-59
2021/12/31 00:27:45;;;;;;;4.28;1.38;;;;;;;26.48;37.57;97261.19;5005518;28;20116;-59
2021/12/31 00:30:11;;;;;;;2.97;1.30;;;;;;;26.48;37.40;97263.81;5007226;28;20040;-60
2021/12/31 00:32:36;;;;;;;2.15;1.35;;;;;;;26.48;37.33;97267.28;5011116;28;20056;-61
2021/12/31 00:35:02;;;;;;;4.40;1.42;;;;;;;26.47;37.45;97268.22;5001029;28;20864;-60
2021/12/31 00:37:32;;;;;;;2.42;1.25;;;;;;;26.48;37.45;97269.91;4998267;28;20057;-59
2021/12/31 00:39:58;;;;;;;2.25;1.33;;;;;;;26.49;37.38;97273.41;4980264;28;20037;-60
2021/12/31 00:42:23;;;;;;;3.35;1.15;;;;;;;26.47;37.54;97262.97;5003847;28;20041;-60
2021/12/31 00:44:49;;;;;;;2.35;1.27;;;;;;;26.48;37.40;97266.47;5009263;28;20037;-59
2021/12/31 00:47:14;;;;;;;2.95;1.27;;;;;;;26.48;37.36;97263.81;5003608;28;20099;-60
2021/12/31 00:49:40;;;;;;;2.33;0.98;;;;;;;26.47;37.33;97265.59;4997653;28;20041;-59
2021/12/31 00:52:07;;;;;;;3.47;1.20;;;;;;;26.48;37.34;97266.47;4998543;28;20147;-58
2021/12/31 00:54:32;;;;;;;3.63;1.38;;;;;;;26.47;37.37;97262.13;4998412;28;20137;-60
2021/12/31 00:57:02;;;;;;;3.95;1.20;;;;;;;26.47;37.30;97259.50;5001669;28;20392;-59
2021/12/31 00:59:28;;;;;;;3.35;1.30;;;;;;;26.46;37.35;97258.66;4997938;28;20095;-60
2021/12/31 01:01:53;;;;;;;3.40;1.15;;;;;;;26.46;37.27;97261.28;5004611;28;20029;-58
2021/12/31 01:04:21;;;;;;;2.05;0.98;;;;;;;26.46;37.41;97260.41;5000095;28;20479;-61
2021/12/31 01:06:47;;;;;;;3.05;1.20;;;;;;;26.45;37.36;97261.34;5005077;28;20037;-60
2021/12/31 01:09:12;;;;;;;3.03;1.17;;;;;;;26.46;37.35;97263.91;5007115;28;20339;-60
2021/12/31 01:11:41;;;;;;;5.32;1.15;;;;;;;26.46;37.46;97270.91;4997439;28;20036;-60
2021/12/31 01:14:14;;;;;;;3.58;1.20;;;;;;;26.46;37.33;97265.66;5002085;28;20097;-60
2021/12/31 01:16:47;;;;;;;3.30;1.13;;;;;;;26.45;37.37;97266.59;4999397;28;20029;-59
2021/12/31 01:21:38;;;;;;;2.42;0.90;;;;;;;26.45;37.30;97271.84;4999110;28;20041;-59
2021/12/31 01:24:04;;;;;;;2.22;1.08;;;;;;;26.46;37.29;97273.53;4996730;28;20037;-60
2021/12/31 01:26:31;;;;;;;2.90;1.15;;;;;;;26.45;37.29;97271.84;4999124;28;20120;-61
2021/12/31 01:28:56;;;;;;;2.95;1.05;;;;;;;26.46;37.33;97270.91;4998832;28;20030;-59
2021/12/31 01:31:24;;;;;;;2.92;1.02;;;;;;;26.42;37.29;97270.22;4999030;28;20087;-59
2021/12/31 01:33:49;;;;;;;2.00;0.90;;;;;;;26.45;37.29;97274.47;4998641;28;20029;-58
2021/12/31 01:36:14;;;;;;;2.72;1.20;;;;;;;26.45;37.25;97263.97;4999297;28;20037;-60
2021/12/31 01:38:40;;;;;;;1.58;0.85;;;;;;;26.40;37.40;97268.59;5000165;28;20029;-60
2021/12/31 01:41:05;;;;;;;1.95;0.82;;;;;;;26.45;37.27;97277.09;4998369;28;20029;-59
2021/12/31 01:43:31;;;;;;;4.72;1.08;;;;;;;26.44;37.30;97276.28;4996852;28;20033;-60
2021/12/31 01:45:59;;;;;;;2.00;0.90;;;;;;;26.44;37.29;97267.53;4998996;28;20037;-60
2021/12/31 01:48:35;;;;;;;1.98;0.73;;;;;;;26.44;37.27;97267.53;4998157;28;20034;-59
2021/12/31 01:51:01;;;;;;;2.28;0.82;;;;;;;26.43;37.44;97269.28;5001743;28;21099;-61
2021/12/31 01:53:26;;;;;;;2.33;0.93;;;;;;;26.43;37.39;97278.97;4998341;28;20037;-59
2021/12/31 01:55:57;;;;;;;2.70;0.85;;;;;;;26.44;37.26;97283.28;4999850;28;20037;-60
2021/12/31 01:58:24;;;;;;;1.50;0.73;;;;;;;26.42;37.17;97272.00;5003813;28;20034;-60
2021/12/31 02:00:49;;;;;;;1.85;1.02;;;;;;;26.41;37.27;97275.56;4997354;28;20026;-60
2021/12/31 02:03:16;;;;;;;2.28;1.20;;;;;;;26.42;37.16;97277.25;4998825;28;20036;-59
2021/12/31 02:05:41;;;;;;;2.25;1.10;;;;;;;26.41;37.32;97271.16;5003931;28;20030;-58
2021/12/31 02:08:07;;;;;;;1.92;0.98;;;;;;;26.41;37.20;97275.56;5002476;28;20126;-60
2021/12/31 02:11:31;;;;;;;2.97;0.85;;;;;;;-148.56;100.00;61375.16;5005588;28;20053;-60
2021/12/31 02:14:55;;;;;;;1.42;0.77;;;;;;;-148.56;100.00;61375.16;5006801;28;20095;-59
2021/12/31 02:17:47;;;;;;;2.47;0.80;;;;;;;26.41;37.20;97275.56;5004736;28;20030;-60
2021/12/31 02:20:13;;;;;;;2.95;0.77;;;;;;;26.36;37.35;97262.66;5004720;28;20113;-59
2021/12/31 02:22:40;;;;;;;1.95;0.90;;;;;;;26.35;37.19;97259.16;5004590;28;20022;-58
2021/12/31 02:25:06;;;;;;;2.13;0.90;;;;;;;26.37;37.31;97263.47;4994199;28;20025;-60
2021/12/31 02:27:35;;;;;;;1.60;0.80;;;;;;;26.36;37.42;97260.03;5012763;28;20101;-60
2021/12/31 02:30:01;;;;;;;2.08;0.82;;;;;;;26.35;37.27;97253.91;5005703;28;20594;-60
2021/12/31 02:32:26;;;;;;;3.05;0.85;;;;;;;26.38;37.22;97249.44;5006590;28;20032;-60
2021/12/31 02:34:52;;;;;;;0.63;0.50;;;;;;;26.37;37.26;97245.09;5007659;28;20040;-60
2021/12/31 02:37:17;;;;;;;1.25;0.60;;;;;;;26.37;37.21;97243.31;4987902;28;20025;-58
2021/12/31 02:39:43;;;;;;;3.33;0.85;;;;;;;26.39;37.22;97251.13;5006636;28;20736;-60
2021/12/31 02:42:09;;;;;;;1.55;0.70;;;;;;;26.38;37.17;97244.19;5006203;28;20120;-59
2021/12/31 02:44:35;;;;;;;1.80;0.65;;;;;;;26.37;37.24;97245.94;5004833;28;20095;-60
2021/12/31 02:47:04;;;;;;;1.23;0.60;;;;;;;26.38;37.19;97249.44;5006459;28;20034;-59
2021/12/31 02:49:34;;;;;;;2.38;0.80;;;;;;;26.37;37.07;97242.47;5007265;28;20022;-59
2021/12/31 02:52:02;;;;;;;1.95;0.60;;;;;;;26.38;37.38;97233.69;5006305;28;20037;-59
2021/12/31 02:54:28;;;;;;;1.88;0.82;;;;;;;26.37;37.19;97235.44;5005509;28;20026;-59
2021/12/31 02:56:53;;;;;;;1.38;0.70;;;;;;;26.37;37.20;97232.81;5005323;28;20117;-60
2021/12/31 02:59:19;;;;;;;1.27;0.60;;;;;;;26.38;37.11;97238.94;4989034;28;20026;-58
2021/12/31 03:01:44;;;;;;;0.65;0.47;;;;;;;26.37;37.10;97227.56;5003279;28;20414;-62
2021/12/31 03:04:09;;;;;;;2.63;0.90;;;;;;;26.35;37.08;97225.00;5007158;28;20025;-59
2021/12/31 03:06:35;;;;;;;1.83;0.63;;;;;;;26.38;37.08;97223.16;5005749;28;20030;-60
2021/12/31 03:09:00;;;;;;;1.08;0.40;;;;;;;26.37;37.14;97218.81;5007645;28;20025;-60
2021/12/31 03:11:26;;;;;;;2.30;0.60;;;;;;;26.37;37.00;97211.78;4986453;28;20040;-60
2021/12/31 03:13:52;;;;;;;0.85;0.40;;;;;;;26.37;37.08;97208.31;5010432;28;20045;-61
2021/12/31 03:16:22;;;;;;;0.73;0.55;;;;;;;26.38;37.16;97215.28;5002901;28;20029;-58
2021/12/31 03:18:48;;;;;;;1.65;0.80;;;;;;;26.34;36.98;97212.78;5003049;28;20044;-59
2021/12/31 03:21:21;;;;;;;0.80;0.50;;;;;;;26.36;37.13;97215.34;4998552;28;20025;-60
2021/12/31 03:23:47;;;;;;;1.42;0.90;;;;;;;26.37;36.95;97213.56;4999608;28;20122;-60
2021/12/31 03:26:12;;;;;;;1.30;0.50;;;;;;;26.35;37.10;97209.22;5001039;28;23043;-60
2021/12/31 03:28:37;;;;;;;1.00;0.50;;;;;;;26.34;37.03;97210.16;5000909;28;20405;-60
2021/12/31 03:31:03;;;;;;;1.08;0.77;;;;;;;26.34;37.14;97207.53;4997627;28;20021;-60
2021/12/31 03:33:28;;;;;;;1.67;0.80;;;;;;;26.34;36.94;97212.78;4998821;28;20026;-59
2021/12/31 03:35:54;;;;;;;2.72;0.60;;;;;;;26.34;37.01;97218.06;4998979;28;20045;-59
2021/12/31 03:38:19;;;;;;;1.63;0.60;;;;;;;26.35;36.99;97214.50;4999744;28;20038;-60
2021/12/31 03:40:46;;;;;;;0.93;0.57;;;;;;;26.34;37.00;97217.19;4999015;28;20021;-58
2021/12/31 03:43:12;;;;;;;0.70;0.50;;;;;;;26.33;36.93;97216.34;4999925;28;20033;-59
2021/12/31 03:45:37;;;;;;;1.17;0.55;;;;;;;26.29;36.96;97206.91;4998153;28;20510;-60
2021/12/31 03:48:03;;;;;;;0.98;0.60;;;;;;;26.33;36.99;97226.88;4997572;28;20037;-61
2021/12/31 03:50:28;;;;;;;0.93;0.50;;;;;;;26.33;36.92;97232.13;4999039;28;20511;-61
2021/12/31 03:52:54;;;;;;;1.60;0.60;;;;;;;26.33;37.01;97229.50;4998385;28;20052;-61
2021/12/31 03:55:20;;;;;;;1.42;0.50;;;;;;;26.31;36.83;97228.69;4999383;28;20033;-60
2021/12/31 03:57:45;;;;;;;1.30;0.70;;;;;;;26.33;36.95;97226.88;4998988;28;20120;-59
2021/12/31 04:00:11;;;;;;;1.75;0.65;;;;;;;26.33;37.03;97226.88;4997845;28;20811;-59
2021/12/31 04:02:37;;;;;;;0.82;0.52;;;;;;;26.32;36.97;97224.31;4984227;28;20576;-59
2021/12/31 04:05:02;;;;;;;1.05;0.47;;;;;;;26.31;37.03;97223.44;4999172;28;20056;-59
2021/12/31 04:07:28;;;;;;;1.05;0.60;;;;;;;26.32;37.02;97219.88;5000312;28;20522;-59
2021/12/31 04:09:53;;;;;;;0.68;0.60;;;;;;;26.31;36.92;97227.88;5000680;28;20033;-60
2021/12/31 04:12:18;;;;;;;0.85;0.40;;;;;;;26.31;36.97;97226.06;5001795;28;20033;-60
2021/12/31 04:14:44;;;;;;;0.52;0.40;;;;;;;26.32;36.94;97224.31;5001664;28;20041;-59
2021/12/31 04:17:09;;;;;;;1.10;0.40;;;;;;;26.31;37.03;97239.22;5005100;28;20025;-61
2021/12/31 04:19:35;;;;;;;1.05;0.47;;;;;;;26.31;36.85;97231.31;5001451;28;20030;-60
2021/12/31 04:22:00;;;;;;;1.10;0.50;;;;;;;26.31;36.90;97238.38;5000167;28;20797;-61
2021/12/31 04:26:54;;;;;;;0.95;0.55;;;;;;;26.29;36.92;97225.31;5005632;28;20120;-60
2021/12/31 04:29:19;;;;;;;0.40;0.40;;;;;;;26.31;37.00;97230.50;5006356;28;20446;-60
2021/12/31 04:31:45;;;;;;;0.65;0.45;;;;;;;26.30;36.89;97224.38;5001374;28;20037;-60
2021/12/31 04:34:10;;;;;;;0.52;0.40;;;;;;;26.30;36.97;97220.88;5001950;28;20037;-60
2021/12/31 04:36:36;;;;;;;0.75;0.30;;;;;;;26.31;36.92;97222.63;5003597;28;20032;-60
2021/12/31 04:39:01;;;;;;;1.10;0.85;;;;;;;26.29;36.92;97206.91;5002482;28;20788;-60
2021/12/31 04:41:26;;;;;;;1.00;0.57;;;;;;;26.29;36.85;97212.19;4998765;28;20573;-60
2021/12/31 04:43:52;;;;;;;0.38;0.30;;;;;;;26.29;36.83;97214.81;5006965;28;20036;-60
2021/12/31 04:46:17;;;;;;;0.57;0.40;;;;;;;26.29;36.91;97213.94;5008252;28;20030;-60
2021/12/31 04:48:43;;;;;;;0.68;0.40;;;;;;;26.29;36.94;97214.81;5003186;28;20045;-61
2021/12/31 04:51:08;;;;;;;1.05;0.50;;;;;;;26.28;36.93;97213.06;5000929;28;20123;-60
2021/12/31 04:53:34;;;;;;;1.38;0.60;;;;;;;26.28;36.96;97212.25;4983465;28;20150;-61
2021/12/31 04:55:59;;;;;;;1.55;0.73;;;;;;;26.28;36.84;97212.25;5001419;28;20650;-59
2021/12/31 04:58:25;;;;;;;0.77;0.50;;;;;;;26.25;36.97;97205.34;5000622;28;20764;-58
2021/12/31 05:00:50;;;;;;;0.57;0.30;;;;;;;26.28;36.76;97207.81;4998337;28;20447;-59
2021/12/31 05:03:16;;;;;;;1.33;0.50;;;;;;;26.27;36.66;97198.25;4999147;28;20041;-60
2021/12/31 05:05:41;;;;;;;0.77;0.50;;;;;;;26.26;36.89;97199.19;5001307;28;20033;-58
2021/12/31 05:08:07;;;;;;;1.88;0.30;;;;;;;26.27;36.86;97205.28;5005490;28;20030;-59
2021/12/31 05:10:33;;;;;;;0.55;0.50;;;;;;;26.27;36.86;97206.13;5003040;28;20053;-59
2021/12/31 05:13:02;;;;;;;0.80;0.50;;;;;;;26.26;36.82;97203.56;5000269;28;20566;-58
2021/12/31 05:15:33;;;;;;;0.55;0.40;;;;;;;26.26;36.90;97198.31;5000623;28;20032;-59
2021/12/31 05:17:58;;;;;;;0.50;0.50;;;;;;;26.25;36.86;97205.34;4999607;28;20029;-59
2021/12/31 05:20:24;;;;;;;0.68;0.50;;;;;;;26.25;36.92;97204.47;4999212;28;22047;-60
2021/12/31 05:22:49;;;;;;;0.98;0.52;;;;;;;26.25;36.78;97213.22;5000722;28;22604;-59
2021/12/31 05:25:16;;;;;;;1.30;0.47;;;;;;;26.26;36.82;97219.34;5001737;28;20484;-59
2021/12/31 05:27:42;;;;;;;0.85;0.40;;;;;;;26.26;36.82;97214.94;5002423;28;20026;-60
2021/12/31 05:30:08;;;;;;;1.45;0.40;;;;;;;26.26;36.87;97220.19;4996249;28;20029;-60
2021/12/31 05:32:33;;;;;;;0.63;0.50;;;;;;;26.24;36.90;97222.03;5002206;28;20483;-60
2021/12/31 05:34:58;;;;;;;0.57;0.38;;;;;;;26.25;36.90;97228.97;4982785;28;20045;-60
2021/12/31 05:37:24;;;;;;;0.75;0.55;;;;;;;26.25;36.98;97222.84;4996838;28;20060;-59
2021/12/31 05:39:49;;;;;;;0.77;0.50;;;;;;;26.25;36.75;97222.84;5000405;28;20108;-60
2021/12/31 05:42:15;;;;;;;0.77;0.45;;;;;;;26.25;37.09;97223.72;5000593;28;20028;-59
2021/12/31 05:44:40;;;;;;;0.35;0.20;;;;;;;26.25;36.86;97218.47;4998477;28;20079;-60
2021/12/31 05:47:06;;;;;;;1.25;0.40;;;;;;;26.23;36.93;97204.53;5000242;28;20025;-60
2021/12/31 05:49:31;;;;;;;1.58;0.40;;;;;;;26.24;36.83;97201.00;5000737;28;20029;-61
2021/12/31 05:51:57;;;;;;;1.02;0.40;;;;;;;26.24;36.84;97201.00;5000627;28;20092;-60
2021/12/31 05:54:22;;;;;;;0.30;0.30;;;;;;;26.23;36.80;97188.78;4998934;28;20062;-60
2021/12/31 05:56:48;;;;;;;0.40;0.20;;;;;;;26.24;36.79;97193.13;5002709;28;20064;-63
2021/12/31 05:59:13;;;;;;;0.65;0.43;;;;;;;26.24;36.87;97187.88;4999195;28;20601;-59
2021/12/31 06:01:38;;;;;;;0.30;0.30;;;;;;;26.23;36.82;97183.53;5000516;28;20053;-60
2021/12/31 06:04:04;;;;;;;0.32;0.32;;;;;;;26.23;36.77;97186.16;5001569;28;20039;-60
2021/12/31 06:06:29;;;;;;;1.13;0.30;;;;;;;26.23;36.74;97194.03;4999661;28;20542;-59
2021/12/31 06:08:55;;;;;;;0.30;0.30;;;;;;;26.22;36.88;97202.84;5006030;28;20033;-60
2021/12/31 06:11:20;;;;;;;0.40;0.35;;;;;;;26.22;36.77;97208.09;5007081;28;20505;-60
2021/12/31 06:13:49;;;;;;;0.40;0.40;;;;;;;26.21;36.60;97201.97;5006875;28;20034;-60
2021/12/31 06:16:15;;;;;;;0.57;0.38;;;;;;;26.22;36.77;97202.84;5008135;28;20516;-59
2021/12/31 06:18:40;;;;;;;0.68;0.35;;;;;;;26.23;36.85;97199.28;5007251;28;20096;-60
2021/12/31 06:21:06;;;;;;;9.77;0.90;;;;;;;26.22;36.78;97202.84;5006132;28;20029;-60
2021/12/31 06:23:31;;;;;;;1.70;0.65;;;;;;;26.22;36.72;97202.84;5010141;28;20036;-59
2021/12/31 06:25:57;;;;;;;0.85;0.55;;;;;;;26.21;36.83;97211.66;5008198;28;20036;-62
2021/12/31 06:28:22;;;;;;;1.15;0.40;;;;;;;26.21;36.83;97206.41;5006091;28;20676;-58
2021/12/31 06:30:48;;;;;;;1.65;0.40;;;;;;;26.21;36.92;97211.66;5006078;28;20037;-58
2021/12/31 06:33:13;;;;;;;0.30;0.30;;;;;;;26.20;36.73;97209.97;5008387;28;20566;-59
2021/12/31 06:35:38;;;;;;;1.73;0.57;;;;;;;26.20;36.69;97205.53;5007713;28;20022;-59
2021/12/31 06:38:04;;;;;;;0.90;0.52;;;;;;;26.15;36.83;97202.28;5009099;28;20068;-60
2021/12/31 06:40:31;;;;;;;0.75;0.30;;;;;;;26.19;36.64;97209.09;5005316;28;20030;-60
2021/12/31 06:42:57;;;;;;;1.02;0.32;;;;;;;26.19;36.60;97206.47;5007070;28;20041;-60
2021/12/31 06:45:22;;;;;;;0.43;0.40;;;;;;;26.20;36.82;97210.78;5007524;28;20037;-59
2021/12/31 06:47:48;;;;;;;1.63;0.50;;;;;;;26.18;36.69;97201.28;5006455;28;20037;-59
2021/12/31 06:50:13;;;;;;;0.70;0.45;;;;;;;26.19;36.68;97203.84;5006053;28;20578;-59
2021/12/31 06:52:39;;;;;;;0.90;0.30;;;;;;;26.18;36.64;97203.91;5004716;28;20034;-60
2021/12/31 06:55:06;;;;;;;0.88;0.40;;;;;;;26.19;36.65;97202.97;5021217;28;20603;-60
2021/12/31 06:57:31;;;;;;;0.52;0.30;;;;;;;26.19;36.67;97205.59;5006460;28;20413;-60
2021/12/31 06:59:57;;;;;;;0.82;0.40;;;;;;;26.18;36.58;97202.16;4998073;28;20079;-61
2021/12/31 07:02:22;;;;;;;1.48;0.70;;;;;;;26.18;36.55;97214.41;4999787;28;20091;-60
2021/12/31 07:04:47;;;;;;;0.73;0.45;;;;;;;26.18;36.77;97215.28;4999643;28;20118;-59
2021/12/31 07:07:13;;;;;;;1.08;0.30;;;;;;;26.19;36.71;97229.25;5003465;28;20419;-61
2021/12/31 07:09:39;;;;;;;0.65;0.50;;;;;;;26.17;36.74;97231.97;5004525;28;20033;-59
2021/12/31 07:12:05;;;;;;;2.25;0.45;;;;;;;26.16;36.60;97234.69;5000019;28;20032;-60
2021/12/31 07:14:30;;;;;;;0.40;0.25;;;;;;;26.17;36.79;97231.97;4998989;28;20021;-59
2021/12/31 07:16:55;;;;;;;2.33;0.40;;;;;;;26.17;36.64;97231.97;5000652;28;20045;-59
2021/12/31 07:19:21;;;;;;;0.70;0.30;;;;;;;26.17;36.70;97231.97;4999955;28;20034;-60
2021/12/31 07:21:46;;;;;;;2.40;0.38;;;;;;;26.16;36.77;97219.75;4997638;28;21262;-60
2021/12/31 07:24:12;;;;;;;0.40;0.30;;;;;;;26.17;36.59;97226.72;4983912;28;20084;-62
2021/12/31 07:26:37;;;;;;;0.75;0.30;;;;;;;26.17;36.48;97223.25;5000474;28;20578;-60
2021/12/31 07:29:02;;;;;;;2.25;0.68;;;;;;;26.17;36.55;97225.88;5000255;28;20018;-60
2021/12/31 07:31:28;;;;;;;2.20;0.40;;;;;;;26.13;36.52;97217.28;4995775;28;20026;-61
2021/12/31 07:33:53;;;;;;;1.27;0.57;;;;;;;26.16;36.56;97225.00;4999286;28;20041;-61
2021/12/31 07:36:19;;;;;;;2.28;0.43;;;;;;;26.15;36.37;97211.94;5000192;28;20032;-59
2021/12/31 07:38:49;;;;;;;0.98;0.40;;;;;;;26.17;36.52;97217.97;4998390;28;20029;-61
2021/12/31 07:41:15;;;;;;;2.72;0.70;;;;;;;26.17;36.47;97225.88;5000382;28;20199;-59
2021/12/31 07:43:40;;;;;;;2.20;0.80;;;;;;;26.16;36.34;97221.53;5001851;28;20037;-59
2021/12/31 07:46:06;;;;;;;4.95;1.08;;;;;;;26.16;36.49;97224.16;5003905;28;20041;-59
2021/12/31 07:48:31;;;;;;;2.00;0.77;;;;;;;26.15;36.57;97223.31;5004849;28;20029;-60
2021/12/31 07:50:56;;;;;;;3.90;1.20;;;;;;;26.12;36.37;97201.59;5001845;28;20965;-60
2021/12/31 07:53:22;;;;;;;6.00;1.48;;;;;;;26.16;36.54;97218.91;4994629;28;20116;-61
2021/12/31 07:55:47;;;;;;;3.58;1.33;;;;;;;26.16;36.38;97225.00;4979425;28;20026;-60
2021/12/31 07:58:13;;;;;;;4.70;2.10;;;;;;;26.16;35.35;97229.41;5001869;28;20044;-61
2021/12/31 08:00:38;;;;;;;7.40;2.28;;;;;;;26.14;34.93;97233.88;5002871;28;20030;-58
2021/12/31 08:03:04;;;;;;;6.18;1.92;;;;;;;26.10;34.86;97231.38;5007329;28;20950;-60
2021/12/31 08:05:30;;;;;;;3.35;2.28;;;;;;;26.08;34.48;97238.50;5001436;28;20598;-59
2021/12/31 08:07:56;;;;;;;4.03;2.30;;;;;;;26.06;34.69;97229.00;5005528;28;20660;-60
2021/12/31 08:10:21;;;;;;;5.85;2.60;;;;;;;26.00;34.38;97222.25;4987250;28;20637;-60
2021/12/31 08:12:47;;;;;;;7.18;2.45;;;;;;;26.02;34.17;97223.06;5003704;28;20483;-59
2021/12/31 08:15:12;;;;;;;6.10;2.78;;;;;;;26.01;34.07;97231.00;4990403;28;20049;-60
2021/12/31 08:17:37;;;;;;;4.72;2.50;;;;;;;25.99;34.24;97233.69;5007800;28;20029;-59
2021/12/31 08:20:04;;;;;;;5.85;2.40;;;;;;;25.97;34.19;97240.78;5002383;28;20083;-60
2021/12/31 08:22:29;;;;;;;5.55;2.55;;;;;;;25.95;34.19;97234.75;5000321;28;20095;-58
2021/12/31 08:24:54;;;;;;;7.78;2.90;;;;;;;25.94;34.12;97246.19;5003387;28;20476;-58
2021/12/31 08:27:20;;;;;;;4.15;2.45;;;;;;;25.93;34.07;97249.75;5005231;28;20034;-59
2021/12/31 08:29:45;;;;;;;4.95;2.90;;;;;;;25.92;34.01;97258.53;5004484;28;20034;-58
2021/12/31 08:32:11;;;;;;;4.45;3.00;;;;;;;25.89;33.95;97250.81;5005249;28;20036;-60
2021/12/31 08:34:37;;;;;;;7.85;3.22;;;;;;;25.88;33.92;97242.06;5000925;28;20033;-59
2021/12/31 08:37:03;;;;;;;5.72;3.20;;;;;;;25.86;33.96;97241.31;5001851;28;20056;-60
2021/12/31 08:39:28;;;;;;;3.95;2.83;;;;;;;25.86;33.85;97245.69;5002178;28;20029;-60
2021/12/31 08:41:54;;;;;;;8.30;2.15;;;;;;;25.84;34.28;97243.13;5001256;28;20049;-59
2021/12/31 08:44:19;;;;;;;4.63;2.20;;;;;;;25.83;34.72;97234.38;5008099;28;20572;-61
2021/12/31 08:46:44;;;;;;;3.58;1.70;;;;;;;25.85;35.26;97228.25;5002269;28;20029;-60
2021/12/31 08:49:10;;;;;;;6.88;2.08;;;;;;;25.85;35.38;97225.63;5002758;28;20591;-59
2021/12/31 08:51:35;;;;;;;5.43;1.75;;;;;;;25.83;35.66;97229.13;5001290;28;20025;-59
2021/12/31 08:54:01;;;;;;;7.65;2.28;;;;;;;25.88;35.77;97230.69;5003670;28;20777;-59
2021/12/31 08:56:26;;;;;;;5.97;2.03;;;;;;;25.89;35.95;97229.81;5001670;28;20034;-60
2021/12/31 08:58:52;;;;;;;4.13;1.85;;;;;;;25.91;35.76;97225.31;5000894;28;20183;-61
2021/12/31 09:01:17;;;;;;;4.90;2.08;;;;;;;25.92;35.93;97227.00;5002303;28;20037;-60
2021/12/31 09:03:42;;;;;;;5.45;1.92;;;;;;;25.93;35.85;97226.13;5003127;28;20026;-59
2021/12/31 09:06:08;;;;;;;4.13;1.80;;;;;;;25.95;35.98;97226.88;5002105;28;20038;-60
2021/12/31 09:08:34;;;;;;;5.00;2.30;;;;;;;25.96;36.01;97218.06;5007265;28;20033;-60
2021/12/31 09:10:59;;;;;;;3.75;1.80;;;;;;;26.00;36.12;97224.03;5002496;28;20030;-62
2021/12/31 09:13:26;;;;;;;4.45;1.48;;;;;;;26.00;36.10;97224.88;4999727;28;20036;-60
2021/12/31 09:15:52;;;;;;;4.40;1.80;;;;;;;26.02;36.19;97223.06;4998956;28;20030;-60
2021/12/31 09:18:18;;;;;;;5.18;2.03;;;;;;;26.03;36.32;97219.50;5002979;28;20040;-61
2021/12/31 09:20:43;;;;;;;5.97;2.13;;;;;;;26.04;36.38;97220.31;5002334;28;20714;-61
2021/12/31 09:23:08;;;;;;;4.03;1.95;;;;;;;26.05;36.21;97207.13;5000994;28;20029;-59
2021/12/31 09:25:34;;;;;;;5.05;1.80;;;;;;;26.06;36.26;97208.84;5002210;28;20037;-59
2021/12/31 09:27:59;;;;;;;6.15;1.90;;;;;;;26.07;36.49;97205.28;5002611;28;20040;-62
2021/12/31 09:30:25;;;;;;;4.45;1.88;;;;;;;26.08;36.40;97212.25;5002581;28;20060;-60
2021/12/31 09:32:50;;;;;;;3.70;1.85;;;;;;;26.10;36.30;97204.28;5002755;28;20053;-61
2021/12/31 09:35:16;;;;;;;4.68;1.60;;;;;;;26.10;36.50;97205.13;5003375;28;20030;-60
2021/12/31 09:37:41;;;;;;;10.57;3.75;;;;;;;26.10;34.95;97209.53;5002639;28;20198;-59
2021/12/31 09:40:08;;;;;;;5.07;4.57;;;;;;;25.99;32.63;97215.31;5013519;28;20040;-58
2021/12/31 09:42:33;;;;;;;6.00;4.93;;;;;;;25.85;31.98;97215.13;5011514;28;20038;-60
2021/12/31 09:44:58;;;;;;;8.50;5.05;;;;;;;25.65;31.63;97204.59;5013130;28;20025;-59
2021/12/31 09:47:24;;;;;;;4.13;3.72;;;;;;;25.50;32.04;97216.63;5008135;28;20033;-58
2021/12/31 09:49:49;;;;;;;6.70;3.30;;;;;;;25.40;32.61;97215.34;5009823;28;20057;-62
2021/12/31 09:52:17;;;;;;;8.15;2.90;;;;;;;25.35;33.04;97217.31;5008084;28;20026;-60
2021/12/31 09:54:45;;;;;;;5.22;2.35;;;;;;;25.30;33.40;97228.88;5009315;28;20065;-60
2021/12/31 09:57:12;;;;;;;3.13;2.10;;;;;;;25.31;33.83;97233.19;4996975;28;20125;-62
2021/12/31 09:59:40;;;;;;;2.13;1.90;;;;;;;25.31;34.01;97234.94;5012501;28;20041;-60
2021/12/31 10:02:05;;;;;;;3.28;1.73;;;;;;;25.31;34.11;97233.19;5011298;28;20024;-60
2021/12/31 10:04:53;;;;;;;2.45;1.90;;;;;;;25.36;34.16;97234.75;5011234;28;20042;-58
2021/12/31 10:07:23;;;;;;;7.45;1.80;;;;;;;25.38;34.34;97232.91;5013436;28;20040;-60
2021/12/31 10:10:16;;;;;;;1.98;1.50;;;;;;;25.40;34.32;97220.59;5011570;28;20033;-59
2021/12/31 10:12:48;;;;;;;3.25;1.50;;;;;;;25.44;34.58;97222.16;5009638;28;20029;-60
2021/12/31 10:15:14;;;;;;;3.78;1.50;;;;;;;25.46;34.63;97220.31;5011722;28;20037;-60
2021/12/31 10:17:39;;;;;;;2.55;1.55;;;;;;;25.48;34.74;97223.72;5003630;28;20091;-59
2021/12/31 10:20:05;;;;;;;7.15;1.50;;;;;;;25.50;34.66;97216.63;5005156;28;20063;-60
2021/12/31 10:22:30;;;;;;;8.55;1.80;;;;;;;25.53;34.76;97211.25;5007129;28;20030;-59
2021/12/31 10:24:56;;;;;;;3.25;1.38;;;;;;;25.55;34.84;97204.13;5004906;28;20758;-59
2021/12/31 10:27:23;;;;;;;5.93;1.70;;;;;;;25.58;34.65;97203.19;5000004;28;20033;-59
2021/12/31 10:29:59;;;;;;;4.65;1.42;;;;;;;25.60;34.80;97200.47;5007718;28;20033;-59
2021/12/31 10:32:40;;;;;;;4.20;1.45;;;;;;;25.63;34.83;97200.34;5007120;28;20030;-59
2021/12/31 10:35:18;;;;;;;3.43;1.40;;;;;;;25.65;34.84;97190.63;5008193;28;20029;-58
2021/12/31 10:37:57;;;;;;;7.45;1.30;;;;;;;25.68;34.91;97193.13;5005369;28;20060;-58
2021/12/31 10:40:29;;;;;;;4.38;1.33;;;;;;;25.70;34.77;97199.13;5001735;28;20795;-59
2021/12/31 10:43:11;;;;;;;3.88;1.50;;;;;;;25.72;34.84;97194.69;5006644;28;20025;-60
2021/12/31 10:45:38;;;;;;;3.53;1.20;;;;;;;25.74;34.73;97192.81;5007687;28;20038;-60
2021/12/31 10:48:08;;;;;;;2.08;1.50;;;;;;;25.75;35.00;97170.91;5006051;28;20033;-60
2021/12/31 10:50:35;;;;;;;4.50;1.40;;;;;;;25.78;34.83;97167.28;5006039;28;20073;-61
2021/12/31 10:53:07;;;;;;;4.20;1.30;;;;;;;25.79;35.10;97172.47;5006859;28;20235;-60
2021/12/31 10:55:34;;;;;;;3.08;1.23;;;;;;;25.80;35.09;97171.53;5001932;28;20033;-60
2021/12/31 10:58:04;;;;;;;2.30;0.95;;;;;;;25.82;35.20;97180.19;5002557;28;20030;-60
2021/12/31 11:00:37;;;;;;;11.27;1.33;;;;;;;25.83;35.09;97181.06;5002776;28;20021;-60
2021/12/31 11:03:03;;;;;;;10.93;2.00;;;;;;;25.86;35.17;97182.69;5008785;28;20060;-60
2021/12/31 11:05:28;;;;;;;6.93;2.10;;;;;;;25.87;35.17;97179.13;5005560;28;20033;-60
2021/12/31 11:07:54;;;;;;;9.10;2.55;;;;;;;25.87;35.13;97177.34;5005582;28;20034;-61
2021/12/31 11:10:24;;;;;;;8.02;2.35;;;;;;;25.89;35.26;97178.13;5007655;28;20049;-60
2021/12/31 11:12:50;;;;;;;5.82;1.80;;;;;;;25.91;35.19;97168.41;5005892;28;20902;-59
2021/12/31 11:15:15;;;;;;;17.63;2.60;;;;;;;25.92;35.23;97158.75;4987955;28;20033;-60
2021/12/31 11:17:41;;;;;;;6.30;2.22;;;;;;;25.93;35.12;97160.47;5005823;28;20029;-59
2021/12/31 11:20:10;;;;;;;4.82;2.30;;;;;;;25.93;35.33;97156.06;5009935;28;20084;-58
2021/12/31 11:22:35;;;;;;;6.95;2.20;;;;;;;25.96;35.27;97155.03;5009654;28;20030;-60
2021/12/31 11:25:24;;;;;;;9.30;2.28;;;;;;;25.98;35.18;97161.09;5010844;28;20047;-58
2021/12/31 11:27:51;;;;;;;11.80;2.40;;;;;;;25.98;35.24;97150.59;5010086;28;20026;-59
2021/12/31 11:30:24;;;;;;;6.82;2.20;;;;;;;25.98;35.23;97153.22;5009636;28;20040;-59
2021/12/31 11:32:56;;;;;;;6.25;1.90;;;;;;;26.00;35.32;97140.84;5009894;28;20551;-60
2021/12/31 11:35:40;;;;;;;8.52;2.20;;;;;;;26.01;35.38;97142.53;5010629;28;20034;-60
2021/12/31 11:38:07;;;;;;;6.38;1.95;;;;;;;26.02;35.26;97143.41;5008516;28;20053;-60